createdAt,value
2023-04-30T06:04:44.008Z,1600.00
2023-04-30T06:05:43.578Z,1552.00
2023-04-30T06:06:43.658Z,1508.00
2023-04-30T06:07:43.545Z,1484.00
2023-04-30T06:08:43.492Z,1464.00
2023-04-30T06:09:43.497Z,1476.00
2023-04-30T06:10:43.515Z,1492.00
2023-04-30T06:11:43.739Z,1512.00
2023-04-30T06:12:44.263Z,1524.00
2023-04-30T06:13:43.394Z,1548.00
2023-04-30T06:14:43.377Z,1596.00
2023-04-30T06:15:43.362Z,1664.00
2023-04-30T06:16:43.495Z,1724.00
2023-04-30T06:17:43.375Z,1784.00
2023-04-30T06:18:43.323Z,1872.00
2023-04-30T06:19:43.304Z,1976.00
2023-04-30T06:20:43.290Z,2084.00
2023-04-30T06:21:43.285Z,2184.00
2023-04-30T06:22:43.282Z,2248.00
2023-04-30T06:23:43.256Z,2280.00
2023-04-30T06:24:43.242Z,2284.00
2023-04-30T06:25:43.239Z,2316.00
2023-04-30T06:26:43.217Z,2376.00
2023-04-30T06:27:43.211Z,2464.00
2023-04-30T06:28:43.178Z,2632.00
2023-04-30T06:29:43.164Z,3800.00
2023-04-30T06:30:43.174Z,2748.00
2023-04-30T06:31:43.188Z,2840.00
2023-04-30T06:32:43.138Z,2844.00
2023-04-30T06:33:43.192Z,2840.00
2023-04-30T06:34:43.107Z,2768.00
2023-04-30T06:35:43.088Z,2632.00
2023-04-30T06:36:43.081Z,2492.00
2023-04-30T06:37:43.057Z,2500.00
2023-04-30T06:38:43.044Z,2592.00
2023-04-30T06:39:43.034Z,2708.00
2023-04-30T06:40:43.015Z,2812.00
2023-04-30T06:41:43.001Z,3180.00
2023-04-30T06:42:43.333Z,3408.00
2023-04-30T06:43:42.984Z,3728.00
2023-04-30T06:44:42.980Z,4744.00
2023-04-30T06:45:42.952Z,4872.00
2023-04-30T06:46:42.975Z,4792.00
2023-04-30T06:47:43.139Z,4572.00
2023-04-30T06:48:42.936Z,4364.00
2023-04-30T06:49:42.903Z,4196.00
2023-04-30T06:50:42.902Z,4148.00
2023-04-30T06:51:42.878Z,4196.00
2023-04-30T06:52:42.925Z,4260.00
2023-04-30T06:53:42.849Z,4328.00
2023-04-30T06:54:42.846Z,4384.00
2023-04-30T06:55:42.990Z,4416.00
2023-04-30T06:56:42.811Z,4496.00
2023-04-30T06:57:42.804Z,4580.00
2023-04-30T06:58:42.928Z,4684.00
2023-04-30T06:59:42.774Z,4740.00
2023-04-30T07:00:42.766Z,4756.00
2023-04-30T07:01:42.857Z,4824.00
2023-04-30T07:02:42.795Z,4980.00
2023-04-30T07:03:42.863Z,5116.00
2023-04-30T07:04:42.718Z,5152.00
2023-04-30T07:05:42.711Z,5216.00
2023-04-30T07:06:42.898Z,5292.00
2023-04-30T07:07:42.686Z,5412.00
2023-04-30T07:08:42.672Z,5496.00
2023-04-30T07:09:42.794Z,5632.00
2023-04-30T07:10:42.656Z,5764.00
2023-04-30T07:11:42.633Z,5944.00
2023-04-30T07:12:42.670Z,6092.00
2023-04-30T07:13:42.617Z,6216.00
2023-04-30T07:14:42.607Z,6340.00
2023-04-30T07:15:42.606Z,6480.00
2023-04-30T07:16:42.583Z,6684.00
2023-04-30T07:17:42.704Z,6764.00
2023-04-30T07:18:42.567Z,6956.00
2023-04-30T07:19:42.551Z,7144.00
2023-04-30T07:20:42.535Z,7300.00
2023-04-30T07:21:42.526Z,7416.00
2023-04-30T07:22:42.518Z,7632.00
2023-04-30T07:23:42.509Z,7796.00
2023-04-30T07:24:42.607Z,7992.00
2023-04-30T07:25:42.489Z,8152.00
2023-04-30T07:26:42.508Z,8360.00
2023-04-30T07:27:42.499Z,8544.00
2023-04-30T07:28:42.457Z,8728.00
2023-04-30T07:29:42.446Z,8860.00
2023-04-30T07:30:42.447Z,8924.00
2023-04-30T07:31:42.471Z,9084.00
2023-04-30T07:32:42.438Z,9208.00
2023-04-30T07:33:42.472Z,9340.00
2023-04-30T07:34:42.413Z,9404.00
2023-04-30T07:35:42.400Z,9540.00
2023-04-30T07:36:42.395Z,9588.00
2023-04-30T07:37:42.391Z,9704.00
2023-04-30T07:38:42.430Z,9896.00
2023-04-30T07:39:42.875Z,10008.00
2023-04-30T07:40:42.394Z,10064.00
2023-04-30T07:41:42.388Z,10092.00
2023-04-30T07:42:42.434Z,10172.00
2023-04-30T07:43:42.357Z,10284.00
2023-04-30T07:44:42.347Z,10352.00
2023-04-30T07:45:42.377Z,10388.00
2023-04-30T07:46:42.629Z,10484.00
2023-04-30T07:47:42.376Z,10576.00
2023-04-30T07:48:42.338Z,10664.00
2023-04-30T07:49:42.366Z,10716.00
2023-04-30T07:50:42.322Z,10800.00
2023-04-30T07:51:42.326Z,10884.00
2023-04-30T07:52:42.328Z,10904.00
2023-04-30T07:53:42.308Z,10996.00
2023-04-30T07:54:42.309Z,11092.00
2023-04-30T07:55:42.300Z,11208.00
2023-04-30T07:56:42.392Z,11280.00
2023-04-30T07:57:42.291Z,11436.00
2023-04-30T07:58:42.294Z,3744.00
2023-04-30T07:59:42.286Z,11592.00
2023-04-30T08:00:42.292Z,11972.00
2023-04-30T08:01:42.303Z,12144.00
2023-04-30T08:02:42.480Z,12212.00
2023-04-30T08:03:42.339Z,12248.00
2023-04-30T08:04:42.275Z,2732.00
2023-04-30T08:05:42.302Z,7924.00
2023-04-30T08:06:42.397Z,2700.00
2023-04-30T08:07:42.273Z,12736.00
2023-04-30T08:08:42.265Z,12988.00
2023-04-30T08:09:42.258Z,13496.00
2023-04-30T08:10:42.258Z,3236.00
2023-04-30T08:11:42.254Z,5016.00
2023-04-30T08:12:42.259Z,11980.00
2023-04-30T08:13:42.247Z,13452.00
2023-04-30T08:14:42.262Z,13220.00
2023-04-30T08:15:42.353Z,3568.00
2023-04-30T08:16:42.269Z,4596.00
2023-04-30T08:17:42.295Z,13912.00
2023-04-30T08:18:42.251Z,7452.00
2023-04-30T08:19:42.242Z,3940.00
2023-04-30T08:20:42.232Z,3376.00
2023-04-30T08:21:42.377Z,9708.00
2023-04-30T08:22:42.403Z,3420.00
2023-04-30T08:23:42.209Z,3736.00
2023-04-30T08:24:42.208Z,3716.00
2023-04-30T08:25:42.216Z,5228.00
2023-04-30T08:26:42.230Z,3840.00
2023-04-30T08:27:42.194Z,3804.00
2023-04-30T08:28:42.193Z,10808.00
2023-04-30T08:29:42.179Z,13860.00
2023-04-30T08:30:42.177Z,4164.00
2023-04-30T08:31:42.190Z,4844.00
2023-04-30T08:32:42.212Z,14584.00
2023-04-30T08:33:42.165Z,14360.00
2023-04-30T08:34:42.151Z,13976.00
2023-04-30T08:35:42.146Z,13984.00
2023-04-30T08:36:42.152Z,13988.00
2023-04-30T08:37:42.161Z,13736.00
2023-04-30T08:38:42.132Z,14120.00
2023-04-30T08:39:42.126Z,14148.00
2023-04-30T08:41:42.118Z,14128.00
2023-04-30T08:42:42.114Z,14124.00
2023-04-30T08:43:42.119Z,14224.00
2023-04-30T08:44:42.113Z,14608.00
2023-04-30T08:45:42.119Z,14840.00
2023-04-30T08:46:42.156Z,14828.00
2023-04-30T08:47:42.164Z,14940.00
2023-04-30T08:48:42.114Z,11556.00
2023-04-30T08:49:42.093Z,15408.00
2023-04-30T08:50:42.097Z,15580.00
2023-04-30T08:51:42.083Z,15388.00
2023-04-30T08:52:42.086Z,14952.00
2023-04-30T08:53:42.084Z,14892.00
2023-04-30T08:54:42.089Z,14964.00
2023-04-30T08:55:42.081Z,14968.00
2023-04-30T08:56:42.080Z,15028.00
2023-04-30T08:57:42.079Z,15124.00
2023-04-30T08:58:42.080Z,15184.00
2023-04-30T08:59:42.083Z,15240.00
2023-04-30T09:00:42.087Z,15156.00
2023-04-30T09:01:42.166Z,15156.00
2023-04-30T09:02:42.172Z,15120.00
2023-04-30T09:03:42.181Z,15224.00
2023-04-30T09:04:42.082Z,15200.00
2023-04-30T09:05:42.078Z,15128.00
2023-04-30T09:06:42.235Z,15344.00
2023-04-30T09:07:48.902Z,15600.00
2023-04-30T09:08:42.081Z,4348.00
2023-04-30T09:09:42.102Z,4448.00
2023-04-30T09:10:42.095Z,5000.00
2023-04-30T09:11:42.089Z,16548.00
2023-04-30T09:12:42.147Z,15856.00
2023-04-30T09:13:42.098Z,15796.00
2023-04-30T09:14:42.088Z,15744.00
2023-04-30T09:15:42.176Z,15852.00
2023-04-30T09:16:42.131Z,15988.00
2023-04-30T09:17:42.130Z,16052.00
2023-04-30T09:18:42.084Z,16356.00
2023-04-30T09:19:42.088Z,16896.00
2023-04-30T09:20:42.096Z,17248.00
2023-04-30T09:21:42.086Z,17568.00
2023-04-30T09:22:42.098Z,17856.00
2023-04-30T09:23:42.087Z,18336.00
2023-04-30T09:24:42.092Z,19808.00
2023-04-30T09:25:42.113Z,21920.00
2023-04-30T09:26:42.244Z,22976.00
2023-04-30T09:27:42.089Z,23808.00
2023-04-30T09:28:42.104Z,24608.00
2023-04-30T09:29:42.108Z,27328.00
2023-04-30T09:30:42.106Z,28640.00
2023-04-30T09:31:42.132Z,28608.00
2023-04-30T09:32:42.137Z,28864.00
2023-04-30T09:33:42.099Z,29024.00
2023-04-30T09:34:42.104Z,19872.00
2023-04-30T09:35:42.220Z,30304.00
2023-04-30T09:36:42.106Z,25920.00
2023-04-30T09:37:42.108Z,29216.00
2023-04-30T09:38:42.120Z,27520.00
2023-04-30T09:39:42.120Z,21248.00
2023-04-30T09:40:42.148Z,4416.00
2023-04-30T09:41:42.131Z,5004.00
2023-04-30T09:42:42.121Z,11360.00
2023-04-30T09:43:42.120Z,27136.00
2023-04-30T09:44:42.131Z,26624.00
2023-04-30T09:45:42.136Z,6592.00
2023-04-30T09:46:42.191Z,5232.00
2023-04-30T09:47:42.152Z,28000.00
2023-04-30T09:48:42.144Z,27488.00
2023-04-30T09:49:42.136Z,28000.00
2023-04-30T09:50:43.583Z,27744.00
2023-04-30T09:51:42.143Z,29216.00
2023-04-30T09:52:42.146Z,27584.00
2023-04-30T09:53:42.144Z,19520.00
2023-04-30T09:54:42.149Z,29440.00
2023-04-30T09:55:42.233Z,28000.00
2023-04-30T09:56:42.171Z,8300.00
2023-04-30T09:57:42.147Z,11556.00
2023-04-30T09:58:42.155Z,6316.00
2023-04-30T09:59:42.155Z,28896.00
2023-04-30T10:00:42.188Z,28064.00
2023-04-30T10:01:42.166Z,28352.00
2023-04-30T10:02:42.205Z,28192.00
2023-04-30T10:03:42.191Z,28576.00
2023-04-30T10:04:42.175Z,28576.00
2023-04-30T10:05:42.169Z,28544.00
2023-04-30T10:06:42.202Z,28800.00
2023-04-30T10:07:42.180Z,28960.00
2023-04-30T10:08:42.201Z,29216.00
2023-04-30T10:09:42.175Z,30144.00
2023-04-30T10:10:42.184Z,34176.00
2023-04-30T10:11:42.191Z,36192.00
2023-04-30T10:12:42.190Z,35104.00
2023-04-30T10:13:42.196Z,32480.00
2023-04-30T10:14:42.206Z,39008.00
2023-04-30T10:15:42.200Z,17984.00
2023-04-30T10:16:42.235Z,37056.00
2023-04-30T10:17:42.235Z,36512.00
2023-04-30T10:18:42.212Z,35040.00
2023-04-30T10:19:42.226Z,35584.00
2023-04-30T10:20:42.244Z,36352.00
2023-04-30T10:21:42.226Z,36672.00
2023-04-30T10:22:42.228Z,34944.00
2023-04-30T10:23:42.233Z,34784.00
2023-04-30T10:24:42.238Z,34784.00
2023-04-30T10:25:42.243Z,34400.00
2023-04-30T10:26:42.254Z,34944.00
2023-04-30T10:27:42.255Z,34656.00
2023-04-30T10:28:42.268Z,34112.00
2023-04-30T10:29:42.271Z,34080.00
2023-04-30T10:30:42.267Z,34112.00
2023-04-30T10:31:42.298Z,33504.00
2023-04-30T10:32:42.346Z,33408.00
2023-04-30T10:33:42.282Z,33408.00
2023-04-30T10:34:42.318Z,32768.00
2023-04-30T10:35:42.292Z,31840.00
2023-04-30T10:36:42.307Z,32160.00
2023-04-30T10:37:42.305Z,32896.00
2023-04-30T10:38:42.319Z,32288.00
2023-04-30T10:39:42.316Z,31360.00
2023-04-30T10:40:42.321Z,30784.00
2023-04-30T10:41:42.328Z,31008.00
2023-04-30T10:42:42.334Z,31168.00
2023-04-30T10:43:42.338Z,31424.00
2023-04-30T10:44:42.346Z,30368.00
2023-04-30T10:45:42.413Z,29120.00
2023-04-30T10:46:42.629Z,30208.00
2023-04-30T10:47:42.410Z,30528.00
2023-04-30T10:48:42.377Z,30304.00
2023-04-30T10:49:42.383Z,32288.00
2023-04-30T10:50:44.349Z,30688.00
2023-04-30T10:51:42.388Z,29856.00
2023-04-30T10:52:42.455Z,29376.00
2023-04-30T10:53:42.405Z,29120.00
2023-04-30T10:54:42.409Z,29088.00
2023-04-30T10:55:42.417Z,29600.00
2023-04-30T10:56:42.433Z,29728.00
2023-04-30T10:57:42.441Z,8848.00
2023-04-30T10:58:42.432Z,25504.00
2023-04-30T10:59:42.436Z,30016.00
2023-04-30T11:00:43.808Z,28896.00
2023-04-30T11:01:42.729Z,29952.00
2023-04-30T11:02:42.539Z,29952.00
2023-04-30T11:03:42.500Z,21664.00
2023-04-30T11:04:42.576Z,29184.00
2023-04-30T11:05:42.736Z,28896.00
2023-04-30T11:06:44.942Z,28736.00
2023-04-30T11:07:42.490Z,19872.00
2023-04-30T11:08:42.510Z,29440.00
2023-04-30T11:09:42.504Z,5552.00
2023-04-30T11:10:42.511Z,28512.00
2023-04-30T11:11:42.517Z,28384.00
2023-04-30T11:12:42.561Z,12916.00
2023-04-30T11:13:42.533Z,28256.00
2023-04-30T11:14:42.539Z,27456.00
2023-04-30T11:15:42.572Z,27072.00
2023-04-30T11:16:42.639Z,21184.00
2023-04-30T11:17:42.583Z,23232.00
2023-04-30T11:18:42.574Z,24960.00
2023-04-30T11:19:42.566Z,26784.00
2023-04-30T11:20:42.575Z,27072.00
2023-04-30T11:21:42.589Z,26784.00
2023-04-30T11:22:42.583Z,9392.00
2023-04-30T11:23:42.645Z,26048.00
2023-04-30T11:24:42.597Z,4856.00
2023-04-30T11:25:42.603Z,27488.00
2023-04-30T11:26:42.637Z,27488.00
2023-04-30T11:27:42.628Z,11136.00
2023-04-30T11:28:42.632Z,21824.00
2023-04-30T11:29:42.623Z,28032.00
2023-04-30T11:30:42.628Z,27680.00
2023-04-30T11:31:42.671Z,11364.00
2023-04-30T11:32:42.703Z,30432.00
2023-04-30T11:33:42.664Z,31904.00
2023-04-30T11:34:42.655Z,32256.00
2023-04-30T11:35:42.653Z,33408.00
2023-04-30T11:36:43.639Z,24288.00
2023-04-30T11:37:42.667Z,7168.00
2023-04-30T11:38:42.668Z,5676.00
2023-04-30T11:39:42.696Z,5596.00
2023-04-30T11:40:42.678Z,4976.00
2023-04-30T11:41:42.689Z,6360.00
2023-04-30T11:42:45.464Z,25568.00
2023-04-30T11:43:42.700Z,23648.00
2023-04-30T11:44:42.696Z,13196.00
2023-04-30T11:45:42.709Z,21440.00
2023-04-30T11:46:42.766Z,6668.00
2023-04-30T11:47:42.733Z,15500.00
2023-04-30T11:48:42.711Z,4668.00
2023-04-30T11:49:42.718Z,4836.00
2023-04-30T11:50:42.732Z,15856.00
2023-04-30T11:51:42.718Z,18048.00
2023-04-30T11:52:42.723Z,5536.00
2023-04-30T11:53:42.731Z,5532.00
2023-04-30T11:54:42.753Z,16136.00
2023-04-30T11:55:42.733Z,7228.00
2023-04-30T11:56:43.297Z,5268.00
2023-04-30T11:57:42.734Z,4148.00
2023-04-30T11:58:42.736Z,12840.00
2023-04-30T11:59:42.734Z,14892.00
2023-04-30T12:00:42.742Z,15156.00
2023-04-30T12:01:42.775Z,14696.00
2023-04-30T12:02:43.032Z,6240.00
2023-04-30T12:03:42.854Z,13016.00
2023-04-30T12:04:42.744Z,14728.00
2023-04-30T12:05:42.760Z,14284.00
2023-04-30T12:06:43.014Z,12856.00
2023-04-30T12:07:42.749Z,5108.00
2023-04-30T12:08:42.748Z,4760.00
2023-04-30T12:09:42.762Z,4620.00
2023-04-30T12:10:42.750Z,3384.00
2023-04-30T12:11:42.749Z,3508.00
2023-04-30T12:12:42.760Z,3832.00
2023-04-30T12:13:42.752Z,13532.00
2023-04-30T12:14:42.750Z,4676.00
2023-04-30T12:15:42.754Z,13652.00
2023-04-30T12:16:42.824Z,13420.00
2023-04-30T12:17:42.771Z,13364.00
2023-04-30T12:18:42.753Z,12452.00
2023-04-30T12:19:42.752Z,12452.00
2023-04-30T12:20:42.766Z,12940.00
2023-04-30T12:21:42.754Z,12676.00
2023-04-30T12:22:42.753Z,12904.00
2023-04-30T12:23:42.761Z,12320.00
2023-04-30T12:24:42.757Z,12232.00
2023-04-30T12:25:42.758Z,12036.00
2023-04-30T12:26:42.755Z,12112.00
2023-04-30T12:27:42.768Z,4644.00
2023-04-30T12:28:42.758Z,11720.00
2023-04-30T12:29:42.760Z,11312.00
2023-04-30T12:30:42.757Z,12104.00
2023-04-30T12:31:42.786Z,11964.00
2023-04-30T12:32:42.764Z,12132.00
2023-04-30T12:33:42.764Z,12380.00
2023-04-30T12:34:42.758Z,12416.00
2023-04-30T12:35:42.778Z,12032.00
2023-04-30T12:36:42.765Z,10040.00
2023-04-30T12:37:42.781Z,6264.00
2023-04-30T12:38:42.763Z,7768.00
2023-04-30T12:39:42.767Z,4488.00
2023-04-30T12:40:42.767Z,10456.00
2023-04-30T12:41:42.787Z,5736.00
2023-04-30T12:42:42.762Z,3660.00
2023-04-30T12:43:42.766Z,3588.00
2023-04-30T12:44:42.771Z,3512.00
2023-04-30T12:45:42.788Z,3372.00
2023-04-30T12:46:42.819Z,3280.00
2023-04-30T12:47:42.810Z,3316.00
2023-04-30T12:48:42.763Z,3444.00
2023-04-30T12:49:42.770Z,8232.00
2023-04-30T12:50:42.764Z,7668.00
2023-04-30T12:51:42.764Z,7704.00
2023-04-30T12:52:44.037Z,7668.00
2023-04-30T12:53:42.754Z,7544.00
2023-04-30T12:54:42.764Z,7140.00
2023-04-30T12:55:42.752Z,6936.00
2023-04-30T12:56:42.748Z,6840.00
2023-04-30T12:57:42.745Z,6552.00
2023-04-30T12:58:42.752Z,3056.00
2023-04-30T12:59:42.736Z,6576.00
2023-04-30T13:00:42.742Z,5876.00
2023-04-30T13:01:42.836Z,6120.00
2023-04-30T13:02:42.806Z,6348.00
2023-04-30T13:03:42.946Z,6064.00
2023-04-30T13:04:42.719Z,5824.00
2023-04-30T13:05:42.719Z,5496.00
2023-04-30T13:06:42.840Z,5764.00
2023-04-30T13:07:42.710Z,5736.00
2023-04-30T13:08:57.155Z,5580.00
2023-04-30T13:09:42.702Z,5736.00
2023-04-30T13:10:42.694Z,5740.00
2023-04-30T13:11:42.696Z,5580.00
2023-04-30T13:12:42.717Z,5844.00
2023-04-30T13:13:42.688Z,6244.00
2023-04-30T13:14:42.693Z,3564.00
2023-04-30T13:15:42.740Z,3276.00
2023-04-30T13:16:42.726Z,3208.00
2023-04-30T13:17:42.687Z,3092.00
2023-04-30T13:18:42.669Z,5284.00
2023-04-30T13:19:42.663Z,2904.00
2023-04-30T13:20:42.647Z,5512.00
2023-04-30T13:21:42.639Z,5376.00
2023-04-30T13:22:42.716Z,3124.00
2023-04-30T13:23:51.932Z,3136.00
2023-04-30T13:24:42.619Z,3228.00
2023-04-30T13:25:42.615Z,2800.00
2023-04-30T13:26:42.611Z,2660.00
2023-04-30T13:27:42.615Z,2760.00
2023-04-30T13:28:42.602Z,4364.00
2023-04-30T13:29:42.598Z,5460.00
2023-04-30T13:30:42.588Z,5400.00
2023-04-30T13:31:42.631Z,5260.00
2023-04-30T13:32:42.630Z,4312.00
2023-04-30T13:33:42.574Z,4816.00
2023-04-30T13:34:42.566Z,4532.00
2023-04-30T13:35:42.561Z,2528.00
2023-04-30T13:36:42.564Z,2852.00
2023-04-30T13:37:42.577Z,4204.00
2023-04-30T13:38:42.540Z,4256.00
2023-04-30T13:39:42.533Z,4220.00
2023-04-30T13:40:42.524Z,4256.00
2023-04-30T13:41:42.517Z,4356.00
2023-04-30T13:42:42.518Z,4332.00
2023-04-30T13:43:42.939Z,4020.00
2023-04-30T13:44:42.497Z,3992.00
2023-04-30T13:45:42.493Z,4164.00
2023-04-30T13:46:42.562Z,4252.00
2023-04-30T13:47:42.523Z,3784.00
2023-04-30T13:48:42.521Z,4492.00
2023-04-30T13:49:42.468Z,3764.00
2023-04-30T13:50:42.465Z,3548.00
2023-04-30T13:51:42.452Z,3352.00
2023-04-30T13:52:42.448Z,3204.00
2023-04-30T13:53:42.447Z,3072.00
2023-04-30T13:54:42.436Z,3104.00
2023-04-30T13:55:42.448Z,2680.00
2023-04-30T13:56:42.417Z,2564.00
2023-04-30T13:57:42.417Z,2480.00
2023-04-30T13:58:42.414Z,2452.00
2023-04-30T13:59:42.414Z,2460.00
2023-04-30T14:00:42.459Z,2432.00
2023-04-30T14:01:42.437Z,2456.00
2023-04-30T14:02:42.572Z,2488.00
2023-04-30T14:03:42.579Z,2988.00
2023-04-30T14:04:51.479Z,2908.00
2023-04-30T14:05:42.490Z,2820.00
2023-04-30T14:06:42.467Z,2808.00
2023-04-30T14:07:42.446Z,2748.00
2023-04-30T14:08:42.439Z,2716.00
2023-04-30T14:09:42.339Z,2588.00
2023-04-30T14:10:42.337Z,2552.00
2023-04-30T14:11:42.320Z,2532.00
2023-04-30T14:12:42.308Z,2456.00
2023-04-30T14:13:42.316Z,2416.00
2023-04-30T14:14:42.296Z,2412.00
2023-04-30T14:15:42.294Z,2416.00
2023-04-30T14:16:42.305Z,2500.00
2023-04-30T14:17:42.338Z,2556.00
2023-04-30T14:18:42.260Z,2672.00
2023-04-30T14:19:42.260Z,2812.00
2023-04-30T14:20:42.251Z,2916.00
2023-04-30T14:21:42.243Z,3072.00
2023-04-30T14:22:42.282Z,3152.00
2023-04-30T14:23:42.223Z,3180.00
2023-04-30T14:24:42.215Z,3248.00
2023-04-30T14:25:42.213Z,3240.00
2023-04-30T14:26:42.193Z,3156.00
2023-04-30T14:27:42.197Z,3052.00
2023-04-30T14:28:42.183Z,2816.00
2023-04-30T14:29:42.169Z,2728.00
2023-04-30T14:30:42.178Z,2304.00
2023-04-30T14:31:42.220Z,2080.00
2023-04-30T14:32:42.209Z,1888.00
2023-04-30T14:33:42.142Z,1732.00
2023-04-30T14:34:42.166Z,1648.00
2023-04-30T14:35:42.139Z,1612.00
2023-04-30T14:36:42.118Z,1596.00
2023-04-30T14:37:42.113Z,1572.00
2023-04-30T14:38:42.104Z,1564.00
2023-04-30T14:39:42.115Z,1568.00
2023-04-30T14:40:42.090Z,1584.00
2023-04-30T14:41:42.077Z,1632.00
2023-04-30T14:42:42.086Z,1928.00
2023-04-30T14:43:42.094Z,1972.00
2023-04-30T14:44:42.056Z,2036.00
2023-04-30T14:45:42.315Z,2048.00
2023-04-30T14:46:42.045Z,2104.00
2023-04-30T14:47:42.088Z,2184.00
2023-04-30T14:48:42.036Z,2224.00
2023-04-30T14:49:42.029Z,2272.00
2023-04-30T14:50:42.026Z,2276.00
2023-04-30T14:51:42.001Z,2248.00
2023-04-30T14:52:42.021Z,2224.00
2023-04-30T14:53:41.998Z,2208.00
2023-04-30T14:54:41.982Z,2204.00
2023-04-30T14:55:41.992Z,2184.00
2023-04-30T14:56:41.990Z,2148.00
2023-04-30T14:57:41.960Z,2068.00
2023-04-30T14:58:41.951Z,1960.00
2023-04-30T14:59:41.966Z,1824.00
2023-04-30T15:00:41.931Z,1744.00
2023-04-30T15:01:42.060Z,1692.00
2023-04-30T15:02:42.024Z,1668.00
2023-04-30T15:03:42.054Z,1620.00
2023-04-30T15:04:41.900Z,1612.00
2023-04-30T15:05:41.891Z,1600.00
2023-04-30T15:06:41.955Z,1580.00
2023-04-30T15:07:41.873Z,1656.00
2023-04-30T15:08:42.054Z,1676.00
2023-04-30T15:09:41.862Z,1700.00
2023-04-30T15:10:41.869Z,1736.00
2023-04-30T15:11:41.842Z,1756.00
2023-04-30T15:12:41.828Z,1788.00
2023-04-30T15:13:41.830Z,1832.00
2023-04-30T15:14:41.831Z,1916.00
2023-04-30T15:15:41.905Z,1992.00
2023-04-30T15:16:41.796Z,2036.00
2023-04-30T15:17:41.802Z,2032.00
2023-04-30T15:18:41.776Z,2028.00
2023-04-30T15:19:41.767Z,2032.00
2023-04-30T15:20:41.772Z,2048.00
2023-04-30T15:21:41.748Z,2052.00
2023-04-30T15:22:41.740Z,2000.00
2023-04-30T15:23:42.839Z,1944.00
2023-04-30T15:24:41.823Z,1868.00
2023-04-30T15:25:41.711Z,1740.00
2023-04-30T15:26:41.710Z,1652.00
2023-04-30T15:27:41.689Z,1604.00
2023-04-30T15:28:41.690Z,1560.00
2023-04-30T15:29:41.682Z,1520.00
2023-04-30T15:30:41.683Z,1500.00
2023-04-30T15:31:41.708Z,1480.00
2023-04-30T15:32:41.671Z,1472.00
2023-04-30T15:33:41.697Z,1456.00
2023-04-30T15:34:41.649Z,1440.00
2023-04-30T15:35:41.620Z,1424.00
2023-04-30T15:36:41.616Z,1412.00
2023-04-30T15:37:41.604Z,1400.00
2023-04-30T15:38:41.605Z,1380.00
2023-04-30T15:39:41.604Z,1380.00
2023-04-30T15:40:41.694Z,1408.00
2023-04-30T15:41:41.564Z,1484.00
2023-04-30T15:42:41.561Z,1520.00
2023-04-30T15:43:41.546Z,1560.00
2023-04-30T15:44:41.544Z,1592.00
2023-04-30T15:45:41.525Z,1584.00
2023-04-30T15:46:41.575Z,1548.00
2023-04-30T15:47:41.595Z,1484.00
2023-04-30T15:48:41.505Z,1408.00
2023-04-30T15:49:41.491Z,1320.00
2023-04-30T15:50:41.487Z,1240.00
2023-04-30T15:51:41.482Z,1192.00
2023-04-30T15:52:41.494Z,1168.00
2023-04-30T15:53:41.462Z,1156.00
2023-04-30T15:54:41.446Z,1160.00
2023-04-30T15:55:41.440Z,1160.00
2023-04-30T15:56:41.445Z,1176.00
2023-04-30T15:57:41.423Z,1184.00
2023-04-30T15:58:41.428Z,1200.00
2023-04-30T15:59:41.401Z,1212.00
2023-04-30T16:00:41.392Z,1232.00
2023-04-30T16:01:41.431Z,1260.00
2023-04-30T16:02:41.477Z,1296.00
2023-04-30T16:03:41.483Z,1344.00
2023-04-30T16:04:41.365Z,1400.00
2023-04-30T16:05:41.343Z,1444.00
2023-04-30T16:06:41.404Z,1532.00
2023-04-30T16:07:43.130Z,1648.00
2023-04-30T16:08:41.313Z,1700.00
2023-04-30T16:09:41.302Z,1684.00
2023-04-30T16:10:41.293Z,1636.00
2023-04-30T16:11:41.285Z,1540.00
2023-04-30T16:12:41.312Z,1444.00
2023-04-30T16:13:41.276Z,1376.00
2023-04-30T16:14:41.261Z,1300.00
2023-04-30T16:15:41.241Z,1204.00
2023-04-30T16:16:41.334Z,1108.00
2023-04-30T16:17:41.331Z,1060.00
2023-04-30T16:18:41.226Z,1044.00
2023-04-30T16:19:41.210Z,1000.00
2023-04-30T16:20:41.196Z,960.00
2023-04-30T16:21:41.190Z,924.00
2023-04-30T16:22:41.196Z,896.00
2023-04-30T16:23:41.261Z,876.00
2023-04-30T16:24:41.167Z,864.00
2023-04-30T16:25:41.162Z,852.00
2023-04-30T16:26:41.163Z,844.00
2023-04-30T16:27:41.130Z,832.00
2023-04-30T16:28:41.129Z,828.00
2023-04-30T16:29:41.109Z,820.00
2023-04-30T16:30:41.099Z,808.00
2023-04-30T16:31:41.109Z,808.00
2023-04-30T16:32:41.114Z,804.00
2023-04-30T16:33:41.070Z,804.00
2023-04-30T16:34:41.068Z,804.00
2023-04-30T16:35:41.044Z,796.00
2023-04-30T16:36:41.615Z,796.00
2023-04-30T16:37:41.026Z,792.00
2023-04-30T16:38:41.014Z,788.00
2023-04-30T16:39:41.011Z,780.00
2023-04-30T16:40:40.996Z,772.00
2023-04-30T16:41:40.977Z,772.00
2023-04-30T16:42:41.005Z,760.00
2023-04-30T16:43:40.956Z,752.00
2023-04-30T16:44:40.979Z,740.00
2023-04-30T16:45:40.984Z,736.00
2023-04-30T16:46:40.932Z,728.00
2023-04-30T16:47:40.940Z,732.00
2023-04-30T16:48:40.910Z,736.00
2023-04-30T16:49:40.893Z,748.00
2023-04-30T16:50:41.107Z,764.00
2023-04-30T16:51:40.872Z,788.00
2023-04-30T16:52:40.872Z,792.00
2023-04-30T16:53:40.858Z,788.00
2023-04-30T16:54:40.845Z,776.00
2023-04-30T16:55:40.837Z,756.00
2023-04-30T16:56:40.830Z,732.00
2023-04-30T16:57:40.813Z,712.00
2023-04-30T16:58:40.815Z,696.00
2023-04-30T16:59:40.788Z,688.00
2023-04-30T17:00:40.778Z,676.00
2023-04-30T17:01:40.835Z,672.00
2023-04-30T17:02:40.904Z,672.00
2023-04-30T17:03:40.866Z,672.00
2023-04-30T17:04:40.736Z,676.00
2023-04-30T17:05:40.896Z,684.00
2023-04-30T17:06:40.724Z,688.00
2023-04-30T17:07:40.699Z,696.00
2023-04-30T17:08:40.713Z,700.00
2023-04-30T17:09:40.681Z,704.00
2023-04-30T17:10:40.679Z,708.00
2023-04-30T17:11:40.662Z,708.00
2023-04-30T17:12:40.649Z,708.00
2023-04-30T17:13:40.632Z,708.00
2023-04-30T17:14:40.621Z,708.00
2023-04-30T17:15:40.644Z,712.00
2023-04-30T17:16:40.607Z,708.00
2023-04-30T17:17:40.639Z,704.00
2023-04-30T17:18:40.597Z,704.00
2023-04-30T17:19:40.591Z,696.00
2023-04-30T17:20:40.575Z,692.00
2023-04-30T17:21:40.583Z,692.00
2023-04-30T17:22:40.537Z,688.00
2023-04-30T17:23:40.528Z,680.00
2023-04-30T17:24:40.524Z,672.00
2023-04-30T17:25:40.518Z,664.00
2023-04-30T17:26:40.497Z,652.00
2023-04-30T17:27:40.481Z,636.00
2023-04-30T17:28:40.491Z,628.00
2023-04-30T17:29:40.456Z,616.00
2023-04-30T17:30:40.469Z,608.00
2023-04-30T17:31:40.525Z,596.00
2023-04-30T17:32:40.489Z,588.00
2023-04-30T17:33:41.327Z,580.00
2023-04-30T17:34:40.402Z,572.00
2023-04-30T17:35:40.398Z,564.00
2023-04-30T17:36:40.379Z,556.00
2023-04-30T17:37:40.368Z,548.00
2023-04-30T17:38:40.377Z,536.00
2023-04-30T17:39:40.351Z,532.00
2023-04-30T17:40:40.330Z,524.00
2023-04-30T17:41:40.331Z,516.00
2023-04-30T17:42:40.328Z,508.00
2023-04-30T17:43:40.298Z,500.00
2023-04-30T17:44:40.288Z,492.00
2023-04-30T17:45:40.279Z,484.00
2023-04-30T17:46:40.343Z,476.00
2023-04-30T17:47:40.334Z,464.00
2023-04-30T17:48:40.247Z,452.00
2023-04-30T17:49:40.251Z,440.00
2023-04-30T17:50:40.222Z,428.00
2023-04-30T17:51:40.210Z,416.00
2023-04-30T17:52:40.234Z,404.00
2023-04-30T17:53:40.209Z,396.00
2023-04-30T17:54:40.183Z,384.00
2023-04-30T17:55:40.170Z,372.00
2023-04-30T17:56:40.156Z,364.00
2023-04-30T17:57:40.151Z,352.00
2023-04-30T17:58:40.319Z,340.00
2023-04-30T17:59:40.135Z,332.00
2023-04-30T18:00:40.109Z,320.00
2023-04-30T18:01:40.144Z,308.00
2023-04-30T18:02:40.165Z,300.00
2023-04-30T18:03:40.186Z,288.00
2023-04-30T18:04:40.063Z,280.00
2023-04-30T18:05:40.085Z,272.00
2023-04-30T18:06:40.109Z,260.00